createdAt,value
2023-02-19T00:01:04.240Z,72.14
2023-02-19T00:11:08.409Z,72.12
2023-02-19T00:21:13.044Z,72.24
2023-02-19T00:31:32.649Z,71.88
2023-02-19T00:41:37.025Z,72.41
2023-02-19T00:51:39.605Z,72.16
2023-02-19T01:01:47.428Z,72.49
2023-02-19T01:11:49.978Z,72.12
2023-02-19T01:21:54.094Z,72.33
2023-02-19T01:32:00.485Z,72.63
2023-02-19T01:42:05.268Z,72.36
2023-02-19T01:52:18.501Z,72.76
2023-02-19T02:02:22.488Z,72.11
2023-02-19T02:12:24.979Z,72.00
2023-02-19T02:22:30.425Z,71.22
2023-02-19T02:32:53.240Z,71.61
2023-02-19T02:43:10.724Z,72.16
2023-02-19T02:53:34.619Z,72.13
2023-02-19T03:03:40.412Z,72.17
2023-02-19T03:14:01.894Z,71.97
2023-02-19T03:24:22.436Z,72.40
2023-02-19T03:34:27.912Z,72.39
2023-02-19T03:44:45.438Z,73.01
2023-02-19T03:54:53.938Z,73.05
2023-02-19T04:05:01.576Z,73.18
2023-02-19T04:15:20.635Z,73.25
2023-02-19T04:25:30.347Z,74.52
2023-02-19T04:35:32.971Z,74.72
2023-02-19T04:45:41.136Z,75.04
2023-02-19T04:55:43.658Z,75.80
2023-02-19T05:05:47.820Z,76.32
2023-02-19T05:15:57.763Z,76.18
2023-02-19T05:26:05.044Z,76.40
2023-02-19T05:36:11.594Z,76.91
2023-02-19T05:46:16.196Z,76.79
2023-02-19T05:56:33.875Z,76.28
2023-02-19T06:06:38.052Z,75.66
2023-02-19T06:16:40.596Z,75.72
2023-02-19T06:26:44.477Z,75.69
2023-02-19T06:36:47.405Z,74.81
2023-02-19T06:46:51.537Z,74.69
2023-02-19T06:56:54.176Z,74.65
2023-02-19T07:06:58.033Z,74.36
2023-02-19T07:17:00.556Z,74.37
2023-02-19T07:27:04.556Z,73.10
2023-02-19T07:37:07.092Z,71.20
2023-02-19T07:47:10.980Z,70.98
2023-02-19T07:57:14.446Z,69.63
2023-02-19T08:07:18.314Z,69.36
2023-02-19T08:17:20.949Z,70.37
2023-02-19T08:27:24.933Z,74.20
2023-02-19T08:37:31.757Z,72.67
2023-02-19T08:47:49.199Z,72.44
2023-02-19T08:57:53.323Z,71.72
2023-02-19T09:07:55.972Z,70.91
2023-02-19T09:17:59.857Z,71.39
2023-02-19T09:28:02.367Z,72.83
2023-02-19T09:38:06.228Z,74.24
2023-02-19T09:48:17.449Z,74.12
2023-02-19T09:58:27.037Z,72.12
2023-02-19T10:08:32.220Z,68.70
2023-02-19T10:18:45.093Z,69.32
2023-02-19T10:28:47.569Z,69.86
2023-02-19T10:38:51.643Z,74.36
2023-02-19T10:48:55.457Z,72.34
2023-02-19T10:59:14.787Z,71.90
2023-02-19T11:09:25.372Z,71.56
2023-02-19T11:19:36.505Z,67.39
2023-02-19T11:29:42.022Z,66.24
2023-02-19T11:39:46.608Z,64.00
2023-02-19T11:49:54.786Z,61.73
2023-02-19T12:00:04.366Z,61.01
2023-02-19T12:10:13.100Z,59.89
2023-02-19T12:20:23.438Z,59.82
2023-02-19T12:30:32.039Z,59.92
2023-02-19T12:40:39.656Z,62.77
2023-02-19T12:50:43.961Z,62.38
2023-02-19T13:01:01.477Z,62.53
2023-02-19T13:11:18.869Z,62.46
2023-02-19T13:21:37.519Z,58.14
2023-02-19T13:31:52.275Z,56.50
2023-02-19T13:41:57.400Z,56.25
2023-02-19T13:52:01.274Z,56.69
2023-02-19T14:02:11.599Z,57.34
2023-02-19T14:12:21.036Z,57.87
2023-02-19T14:22:41.991Z,58.30
2023-02-19T14:32:51.034Z,61.81
2023-02-19T14:42:57.303Z,64.68
2023-02-19T14:53:04.286Z,64.46
2023-02-19T15:03:07.795Z,65.02
2023-02-19T15:13:17.428Z,64.72
2023-02-19T15:23:22.030Z,65.34
2023-02-19T15:33:27.150Z,66.36
2023-02-19T15:43:32.105Z,66.44
2023-02-19T15:53:42.133Z,66.68
2023-02-19T16:03:45.122Z,66.93
2023-02-19T16:13:52.988Z,67.19
2023-02-19T16:24:02.385Z,68.44
2023-02-19T16:34:18.606Z,71.37
2023-02-19T16:44:31.595Z,73.44
2023-02-19T16:54:35.537Z,73.44
2023-02-19T17:04:38.118Z,72.60
2023-02-19T17:14:42.312Z,71.73
2023-02-19T17:24:45.900Z,70.49
2023-02-19T17:34:49.978Z,69.54
2023-02-19T17:44:53.300Z,73.81
2023-02-19T17:54:57.190Z,76.01
2023-02-19T18:04:59.792Z,76.77
2023-02-19T18:15:03.718Z,76.43
2023-02-19T18:25:06.351Z,76.29
2023-02-19T18:35:10.480Z,76.72
2023-02-19T18:45:12.976Z,76.33
2023-02-19T18:55:16.834Z,76.29
2023-02-19T19:05:22.512Z,75.83
2023-02-19T19:15:26.500Z,75.70
2023-02-19T19:25:28.972Z,75.45
2023-02-19T19:35:32.871Z,75.30
2023-02-19T19:45:35.357Z,74.60
2023-02-19T19:55:39.328Z,73.36
2023-02-19T20:05:41.940Z,73.23
2023-02-19T20:15:46.418Z,73.77
2023-02-19T20:25:48.900Z,74.42
2023-02-19T20:35:52.927Z,74.64
2023-02-19T20:45:55.724Z,76.03
2023-02-19T20:55:59.704Z,77.11
2023-02-19T21:06:02.157Z,76.68
2023-02-19T21:16:06.361Z,76.56
2023-02-19T21:26:08.920Z,76.71
2023-02-19T21:36:13.050Z,77.21
2023-02-19T21:46:18.645Z,77.55
2023-02-19T21:56:23.680Z,77.27
2023-02-19T22:06:28.950Z,76.99
2023-02-19T22:16:33.020Z,76.39
2023-02-19T22:26:37.456Z,76.38
2023-02-19T22:36:41.257Z,76.76
2023-02-19T22:46:47.256Z,77.47
2023-02-19T22:56:51.123Z,77.18
2023-02-19T23:06:53.961Z,77.40
2023-02-19T23:16:57.862Z,77.43
2023-02-19T23:27:03.124Z,76.92
2023-02-19T23:37:07.047Z,76.56
2023-02-19T23:47:09.548Z,75.96
2023-02-19T23:57:14.964Z,75.95
